Time;durP1;ratioP1;P1;durP2;ratioP2;P2;SDS_P1;SDS_P2;PMS_P1;PMS_P2;Temp;Humidity;BMP_temperature;BMP_pressure;BME280_temperature;BME280_humidity;BME280_pressure;Samples;Min_cycle;Max_cycle;Signal;HPM_P1;HPM_P2
2022/02/27 00:02:04;;;;;;;42.60;16.17;;;0.30;99.90;;;;;;5052299;28;20082;-71
2022/02/27 00:04:29;;;;;;;36.35;15.85;;;0.30;99.90;;;;;;5053372;28;20060;-71
2022/02/27 00:06:55;;;;;;;52.30;21.27;;;0.20;99.90;;;;;;5052182;28;20168;-71
2022/02/27 00:09:21;;;;;;;39.78;16.90;;;0.10;99.90;;;;;;5035528;28;20036;-71
2022/02/27 00:11:48;;;;;;;40.00;17.13;;;0.10;99.90;;;;;;5052107;28;20052;-71
2022/02/27 00:14:14;;;;;;;41.42;17.67;;;0.20;99.90;;;;;;5053345;28;20025;-70
2022/02/27 00:16:40;;;;;;;34.92;15.73;;;0.10;99.90;;;;;;5035446;28;20425;-70
2022/02/27 00:19:05;;;;;;;29.67;15.77;;;0.00;99.90;;;;;;5053326;28;20021;-72
2022/02/27 00:21:31;;;;;;;49.97;19.90;;;-0.10;99.90;;;;;;5052031;28;20111;-70
2022/02/27 00:23:56;;;;;;;50.63;21.88;;;-0.20;99.90;;;;;;5051848;28;20036;-71
2022/02/27 00:26:22;;;;;;;46.70;17.95;;;-0.30;99.90;;;;;;5035072;28;20033;-71
2022/02/27 00:28:47;;;;;;;49.55;17.60;;;-0.20;99.90;;;;;;5035212;28;20120;-71
2022/02/27 00:31:13;;;;;;;49.55;18.20;;;-0.20;99.90;;;;;;5035026;28;20049;-71
2022/02/27 00:33:38;;;;;;;49.47;18.77;;;-0.20;99.90;;;;;;5035869;28;20017;-71
2022/02/27 00:36:04;;;;;;;40.67;16.85;;;-0.20;99.90;;;;;;5052988;28;20021;-71
2022/02/27 00:38:30;;;;;;;42.47;15.80;;;-0.20;99.90;;;;;;5052924;28;20063;-71
2022/02/27 00:40:56;;;;;;;34.67;16.83;;;-0.20;99.90;;;;;;5051685;28;20225;-71
2022/02/27 00:43:21;;;;;;;33.63;15.80;;;-0.20;99.90;;;;;;5052997;28;20028;-71
2022/02/27 00:45:47;;;;;;;42.15;16.95;;;0.00;99.90;;;;;;5035117;28;20083;-70
2022/02/27 00:48:12;;;;;;;47.35;16.13;;;0.20;99.90;;;;;;5051853;28;20135;-71
2022/02/27 00:50:38;;;;;;;37.08;14.98;;;0.20;99.90;;;;;;5051647;28;20065;-71
2022/02/27 00:53:06;;;;;;;35.83;14.93;;;0.20;99.90;;;;;;5051607;28;20107;-70
2022/02/27 00:55:32;;;;;;;41.22;15.40;;;0.20;99.90;;;;;;5051749;28;20017;-71
2022/02/27 00:57:57;;;;;;;47.15;15.18;;;0.20;99.90;;;;;;5035020;28;20025;-71
2022/02/27 01:00:23;;;;;;;43.00;14.40;;;0.30;99.90;;;;;;5051632;28;20021;-71
2022/02/27 01:02:48;;;;;;;34.10;13.88;;;0.20;99.90;;;;;;5051454;28;20391;-70
2022/02/27 01:05:14;;;;;;;37.45;14.73;;;0.30;99.90;;;;;;5051460;28;20025;-71
2022/02/27 01:07:39;;;;;;;42.05;13.90;;;0.30;99.90;;;;;;5052821;28;20088;-71
2022/02/27 01:10:06;;;;;;;36.13;13.27;;;0.40;99.90;;;;;;5052669;28;20025;-71
2022/02/27 01:12:32;;;;;;;34.65;14.05;;;0.50;99.90;;;;;;5051446;28;20032;-71
2022/02/27 01:14:57;;;;;;;31.67;12.32;;;0.50;99.90;;;;;;5052608;28;20382;-71
2022/02/27 01:17:23;;;;;;;37.25;13.73;;;0.60;99.90;;;;;;5034723;28;20024;-71
2022/02/27 01:19:49;;;;;;;31.58;12.50;;;0.50;99.90;;;;;;5034771;28;20028;-70
2022/02/27 01:22:15;;;;;;;35.83;12.45;;;0.40;99.90;;;;;;5051347;28;20021;-72
2022/02/27 01:24:41;;;;;;;35.10;12.25;;;0.40;99.90;;;;;;5052588;28;20059;-71
2022/02/27 01:27:06;;;;;;;39.83;13.10;;;0.50;99.90;;;;;;5051296;28;20089;-71
2022/02/27 01:29:33;;;;;;;34.17;12.32;;;0.50;99.90;;;;;;5051357;28;20158;-71
2022/02/27 01:31:59;;;;;;;39.22;12.88;;;0.50;99.90;;;;;;5051025;28;20542;-71
2022/02/27 01:34:24;;;;;;;36.60;12.93;;;0.60;99.90;;;;;;5052489;28;20110;-70
2022/02/27 01:36:50;;;;;;;38.70;13.13;;;0.60;99.90;;;;;;5051259;28;20029;-70
2022/02/27 01:39:16;;;;;;;29.80;12.00;;;0.60;99.90;;;;;;5055076;28;20025;-71
2022/02/27 01:41:41;;;;;;;28.13;11.73;;;0.60;99.90;;;;;;5038034;28;20433;-71
2022/02/27 01:44:07;;;;;;;30.30;12.15;;;0.60;99.90;;;;;;5038268;28;20112;-71
2022/02/27 01:46:35;;;;;;;31.17;10.93;;;0.50;99.90;;;;;;5054886;28;20364;-71
2022/02/27 01:49:01;;;;;;;28.65;12.23;;;0.40;99.90;;;;;;5054784;28;20020;-71
2022/02/27 01:51:26;;;;;;;32.28;12.13;;;0.40;99.90;;;;;;5054718;28;20416;-71
2022/02/27 01:53:52;;;;;;;32.72;12.55;;;0.40;99.90;;;;;;5055889;28;20418;-70
2022/02/27 01:56:17;;;;;;;27.88;11.52;;;0.40;99.90;;;;;;5055832;28;20475;-70
2022/02/27 01:58:44;;;;;;;35.50;12.05;;;0.40;99.90;;;;;;5055789;28;20035;-71
2022/02/27 02:01:10;;;;;;;30.02;11.65;;;0.30;99.90;;;;;;5054416;28;20037;-71
2022/02/27 02:03:36;;;;;;;33.22;12.73;;;0.30;99.90;;;;;;5037805;28;20112;-71
2022/02/27 02:06:02;;;;;;;30.92;11.93;;;0.30;99.90;;;;;;5037834;28;20478;-71
2022/02/27 02:08:28;;;;;;;40.70;12.52;;;0.40;99.90;;;;;;5055459;28;20064;-72
2022/02/27 02:10:54;;;;;;;30.23;12.65;;;0.40;99.90;;;;;;5037799;28;20029;-70
2022/02/27 02:13:19;;;;;;;31.38;12.40;;;0.40;99.90;;;;;;5037652;28;20162;-72
2022/02/27 02:15:54;;;;;;;30.98;12.27;;;0.50;99.90;;;;;;5037592;28;20029;-71
2022/02/27 02:18:19;;;;;;;30.15;11.10;;;0.50;99.90;;;;;;5054143;28;20032;-71
2022/02/27 02:20:45;;;;;;;30.45;11.15;;;0.50;99.90;;;;;;5037434;28;20116;-71
2022/02/27 02:23:10;;;;;;;31.40;11.02;;;0.40;99.90;;;;;;5054146;28;20463;-71
2022/02/27 02:25:36;;;;;;;30.38;11.02;;;0.50;99.90;;;;;;5037446;28;20029;-72
2022/02/27 02:28:01;;;;;;;24.75;10.07;;;0.40;99.90;;;;;;5054056;28;20071;-70
2022/02/27 02:30:27;;;;;;;30.33;10.57;;;0.40;99.90;;;;;;5037077;28;20565;-71
2022/02/27 02:32:57;;;;;;;27.65;10.48;;;0.20;99.90;;;;;;5055139;28;20037;-71
2022/02/27 02:35:24;;;;;;;29.35;10.95;;;0.20;99.90;;;;;;5037543;28;20024;-70
2022/02/27 02:37:50;;;;;;;25.30;11.15;;;0.20;99.90;;;;;;5053753;28;20414;-71
2022/02/27 02:40:16;;;;;;;33.97;10.80;;;0.20;99.90;;;;;;5053729;28;20044;-71
2022/02/27 02:42:43;;;;;;;28.33;11.27;;;0.20;99.90;;;;;;5054943;28;20066;-71
2022/02/27 02:45:10;;;;;;;30.17;10.82;;;0.20;99.90;;;;;;5054793;28;20017;-71
2022/02/27 02:47:41;;;;;;;32.28;10.80;;;0.20;99.90;;;;;;5053531;28;20169;-71
2022/02/27 02:50:07;;;;;;;24.77;10.10;;;0.20;99.90;;;;;;5054870;28;20052;-71
2022/02/27 02:52:32;;;;;;;28.92;10.50;;;0.20;99.90;;;;;;5053440;28;20075;-70
2022/02/27 02:54:58;;;;;;;27.92;10.60;;;0.20;99.90;;;;;;5054686;28;20032;-70
2022/02/27 02:57:23;;;;;;;31.27;11.02;;;0.20;99.90;;;;;;5053502;28;20056;-70
2022/02/27 02:59:50;;;;;;;22.20;9.30;;;0.20;99.90;;;;;;5053317;28;20032;-70
2022/02/27 03:02:16;;;;;;;28.45;9.80;;;0.10;99.90;;;;;;5053205;28;20043;-70
2022/02/27 03:04:41;;;;;;;30.75;10.77;;;0.00;99.90;;;;;;5053355;28;20544;-70
2022/02/27 03:07:07;;;;;;;26.83;10.25;;;0.00;99.90;;;;;;5054457;28;20021;-70
2022/02/27 03:09:35;;;;;;;25.83;10.38;;;0.00;99.90;;;;;;5054429;28;20025;-70
2022/02/27 03:12:02;;;;;;;23.35;8.88;;;0.00;99.90;;;;;;5053085;28;20021;-70
2022/02/27 03:14:28;;;;;;;19.52;9.48;;;0.00;99.90;;;;;;5053183;28;20025;-70
2022/02/27 03:16:53;;;;;;;29.63;9.70;;;0.00;99.90;;;;;;5054292;28;20378;-70
2022/02/27 03:19:19;;;;;;;28.90;10.40;;;-0.10;99.90;;;;;;5053078;28;20029;-70
2022/02/27 03:21:44;;;;;;;20.75;9.40;;;-0.20;99.90;;;;;;5036275;28;20395;-70
2022/02/27 03:24:10;;;;;;;22.15;9.10;;;-0.30;99.90;;;;;;5036257;28;20116;-71
2022/02/27 03:26:35;;;;;;;24.73;9.93;;;-0.40;99.90;;;;;;5052873;28;20018;-70
2022/02/27 03:29:01;;;;;;;23.85;9.27;;;-0.50;99.90;;;;;;5052892;28;20429;-70
2022/02/27 03:31:26;;;;;;;23.38;9.25;;;-0.60;99.90;;;;;;5053760;28;20056;-70
2022/02/27 03:33:52;;;;;;;23.08;10.52;;;-0.60;99.90;;;;;;5053905;28;20033;-70
2022/02/27 03:36:17;;;;;;;31.42;9.52;;;-0.60;99.90;;;;;;5053911;28;20025;-70
2022/02/27 03:38:43;;;;;;;22.23;8.93;;;-0.60;99.90;;;;;;5052718;28;20382;-70
2022/02/27 03:41:09;;;;;;;19.70;8.30;;;-0.70;99.90;;;;;;5053805;28;20027;-71
2022/02/27 03:43:34;;;;;;;22.67;9.88;;;-0.60;99.90;;;;;;5053910;28;20049;-71
2022/02/27 03:46:00;;;;;;;31.92;9.73;;;-0.70;99.90;;;;;;5053696;28;20036;-70
2022/02/27 03:48:26;;;;;;;25.95;9.68;;;-0.60;99.90;;;;;;5052493;28;20411;-70
2022/02/27 03:50:51;;;;;;;26.55;9.52;;;-0.50;99.90;;;;;;5035828;28;20024;-70
2022/02/27 03:53:18;;;;;;;19.45;9.02;;;-0.50;99.90;;;;;;5053605;28;20025;-70
2022/02/27 03:55:44;;;;;;;33.42;8.80;;;-0.40;99.90;;;;;;5053612;28;20052;-70
2022/02/27 03:58:09;;;;;;;16.88;8.25;;;-0.40;99.90;;;;;;5053551;28;20442;-71
2022/02/27 04:00:35;;;;;;;23.58;9.68;;;-0.40;99.90;;;;;;5051949;28;20025;-70
2022/02/27 04:03:00;;;;;;;28.83;9.00;;;-0.40;99.90;;;;;;5052221;28;20098;-71
2022/02/27 04:05:26;;;;;;;27.35;8.95;;;-0.50;99.90;;;;;;5052163;28;20048;-70
2022/02/27 04:07:52;;;;;;;22.10;8.45;;;-0.50;99.90;;;;;;5052258;28;20531;-71
2022/02/27 04:10:17;;;;;;;26.25;8.70;;;-0.50;99.90;;;;;;5053404;28;20479;-70
2022/02/27 04:12:43;;;;;;;21.20;8.50;;;-0.40;99.90;;;;;;5053275;28;20029;-70
2022/02/27 04:15:09;;;;;;;26.20;9.40;;;-0.30;99.90;;;;;;5052158;28;20471;-71
2022/02/27 04:17:35;;;;;;;29.00;8.95;;;-0.20;99.90;;;;;;5051900;28;20021;-71
2022/02/27 04:20:00;;;;;;;27.83;8.45;;;-0.20;99.90;;;;;;5052051;28;20067;-70
2022/02/27 04:22:27;;;;;;;23.92;9.38;;;0.00;99.90;;;;;;5035207;28;20521;-70
2022/02/27 04:24:52;;;;;;;23.60;8.43;;;0.10;99.90;;;;;;5053205;28;20028;-71
2022/02/27 04:27:18;;;;;;;23.05;8.85;;;0.10;99.90;;;;;;5035220;28;20021;-70
2022/02/27 04:29:45;;;;;;;19.48;7.95;;;0.10;99.90;;;;;;5035018;28;20025;-71
2022/02/27 04:32:10;;;;;;;22.33;7.97;;;0.00;99.90;;;;;;5053120;28;20395;-70
2022/02/27 04:34:36;;;;;;;17.67;7.70;;;0.10;99.90;;;;;;5035186;28;20037;-71
2022/02/27 04:37:03;;;;;;;20.40;7.85;;;0.00;99.90;;;;;;5051875;28;20067;-70
2022/02/27 04:39:28;;;;;;;17.45;7.95;;;-0.20;99.90;;;;;;5051872;28;20025;-70
2022/02/27 04:41:54;;;;;;;27.05;8.02;;;-0.30;99.90;;;;;;5051752;28;20403;-71
2022/02/27 04:44:19;;;;;;;23.10;8.52;;;-0.40;99.90;;;;;;5051701;28;20485;-70
2022/02/27 04:46:45;;;;;;;18.52;9.63;;;-0.40;99.90;;;;;;5051764;28;20508;-71
2022/02/27 04:49:10;;;;;;;23.05;7.95;;;-0.50;99.90;;;;;;5051832;28;20020;-71
2022/02/27 04:51:36;;;;;;;24.02;8.63;;;-0.60;99.90;;;;;;5051921;28;20029;-71
2022/02/27 04:54:01;;;;;;;20.35;7.80;;;-0.60;99.90;;;;;;5052855;28;20048;-70
2022/02/27 04:56:27;;;;;;;22.83;8.85;;;-0.60;99.90;;;;;;5051693;28;20455;-70
2022/02/27 04:58:52;;;;;;;24.10;8.35;;;-0.60;99.90;;;;;;5052876;28;20386;-71
2022/02/27 05:01:18;;;;;;;21.23;8.50;;;-0.50;99.90;;;;;;5051439;28;20067;-71
2022/02/27 05:03:43;;;;;;;21.05;8.05;;;-0.60;99.90;;;;;;5051663;28;20025;-71
2022/02/27 05:06:09;;;;;;;25.05;8.15;;;-0.60;99.90;;;;;;5053189;28;20048;-71
2022/02/27 05:08:34;;;;;;;26.48;8.98;;;-0.70;99.90;;;;;;5051655;28;20017;-71
2022/02/27 05:11:00;;;;;;;19.10;8.23;;;-0.70;99.90;;;;;;5052722;28;20029;-71
2022/02/27 05:13:25;;;;;;;27.63;10.05;;;-0.60;99.90;;;;;;5054167;28;20024;-71
2022/02/27 05:15:51;;;;;;;24.02;8.35;;;-0.50;99.90;;;;;;5038796;28;20120;-70
2022/02/27 05:18:17;;;;;;;33.33;9.65;;;-0.40;99.90;;;;;;5038681;28;20461;-70
2022/02/27 05:20:42;;;;;;;25.42;8.63;;;-0.40;99.90;;;;;;5055303;28;20049;-71
2022/02/27 05:23:08;;;;;;;20.63;8.40;;;-0.50;99.90;;;;;;5056610;28;20032;-70
2022/02/27 05:25:33;;;;;;;22.02;8.40;;;-0.50;99.90;;;;;;5055242;28;20055;-72
2022/02/27 05:27:59;;;;;;;20.80;7.93;;;-0.30;99.90;;;;;;5055190;28;20544;-70
2022/02/27 05:30:24;;;;;;;21.25;8.25;;;-0.30;99.90;;;;;;5038266;28;20565;-70
2022/02/27 05:32:50;;;;;;;24.65;8.10;;;-0.20;99.90;;;;;;5054938;28;20139;-70
2022/02/27 05:35:18;;;;;;;29.70;9.20;;;-0.20;99.90;;;;;;5055053;28;20498;-71
2022/02/27 05:37:44;;;;;;;31.35;8.57;;;-0.10;99.90;;;;;;5054905;28;20058;-71
2022/02/27 05:40:10;;;;;;;21.85;8.27;;;-0.10;99.90;;;;;;5055078;28;20107;-71
2022/02/27 05:42:36;;;;;;;22.08;7.88;;;-0.10;99.90;;;;;;5054976;28;20454;-71
2022/02/27 05:45:04;;;;;;;23.60;8.32;;;-0.20;99.90;;;;;;5056059;28;20052;-71
2022/02/27 05:47:29;;;;;;;24.13;8.80;;;-0.10;99.90;;;;;;5054720;28;20021;-70
2022/02/27 05:49:55;;;;;;;20.65;7.88;;;-0.10;99.90;;;;;;5038085;28;20083;-70
2022/02/27 05:52:20;;;;;;;18.05;7.85;;;-0.20;99.90;;;;;;5054761;28;20425;-71
2022/02/27 05:54:47;;;;;;;20.88;8.40;;;-0.20;99.90;;;;;;5037952;28;20148;-70
2022/02/27 05:57:13;;;;;;;21.98;8.52;;;-0.10;99.90;;;;;;5054710;28;20518;-70
2022/02/27 05:59:39;;;;;;;30.75;8.82;;;0.10;99.90;;;;;;5054716;28;20053;-71
2022/02/27 06:02:05;;;;;;;20.13;8.90;;;0.20;99.90;;;;;;5054439;28;20021;-70
2022/02/27 06:04:30;;;;;;;22.88;8.27;;;0.30;99.90;;;;;;5054499;28;20423;-71
2022/02/27 06:06:56;;;;;;;24.05;8.73;;;0.20;99.90;;;;;;5054357;28;20121;-71
2022/02/27 06:09:22;;;;;;;26.05;8.32;;;0.30;99.90;;;;;;5054246;28;20021;-70
2022/02/27 06:11:47;;;;;;;18.52;8.77;;;0.30;99.90;;;;;;5054398;28;20433;-71
2022/02/27 06:14:13;;;;;;;23.67;9.73;;;0.40;99.90;;;;;;5054527;28;20036;-71
2022/02/27 06:16:39;;;;;;;23.58;9.00;;;0.50;99.90;;;;;;5055569;28;20154;-70
2022/02/27 06:19:04;;;;;;;30.30;8.65;;;0.50;99.90;;;;;;5054225;28;20029;-71
2022/02/27 06:21:29;;;;;;;31.08;8.68;;;0.50;99.90;;;;;;5053994;28;20025;-71
2022/02/27 06:23:55;;;;;;;15.95;7.90;;;0.50;99.90;;;;;;5053853;28;20025;-71
2022/02/27 06:26:20;;;;;;;26.58;9.82;;;0.50;99.90;;;;;;5055178;28;20099;-71
2022/02/27 06:28:46;;;;;;;19.83;7.25;;;0.60;99.90;;;;;;5055210;28;20107;-71
2022/02/27 06:31:12;;;;;;;23.20;8.82;;;0.60;99.90;;;;;;5054937;28;20045;-72
2022/02/27 06:33:37;;;;;;;19.00;7.30;;;0.70;99.90;;;;;;5053933;28;20033;-70
2022/02/27 06:36:03;;;;;;;16.38;7.45;;;0.80;99.90;;;;;;5053901;28;20025;-70
2022/02/27 06:38:29;;;;;;;19.02;7.18;;;0.90;99.90;;;;;;5053820;28;20051;-70
2022/02/27 06:40:55;;;;;;;17.85;7.60;;;1.10;99.90;;;;;;5054936;28;20082;-70
2022/02/27 06:43:20;;;;;;;19.45;7.50;;;1.30;99.90;;;;;;5037083;28;20024;-71
2022/02/27 06:45:46;;;;;;;17.73;7.28;;;1.60;99.90;;;;;;5053637;28;20025;-71
2022/02/27 06:48:11;;;;;;;23.30;8.27;;;1.90;99.90;;;;;;5053736;28;20517;-71
2022/02/27 06:50:37;;;;;;;19.60;7.35;;;2.10;99.90;;;;;;5054886;28;20025;-71
2022/02/27 06:53:02;;;;;;;15.93;7.22;;;2.70;99.90;;;;;;5053619;28;20054;-70
2022/02/27 06:55:28;;;;;;;18.10;7.13;;;3.10;99.90;;;;;;5053597;28;20048;-70
2022/02/27 06:57:54;;;;;;;18.40;6.72;;;3.30;99.90;;;;;;5053417;28;20052;-71
2022/02/27 07:00:20;;;;;;;16.52;6.35;;;3.40;99.90;;;;;;5053495;28;20389;-72
2022/02/27 07:02:46;;;;;;;15.82;6.35;;;3.70;99.90;;;;;;5054677;28;20024;-71
2022/02/27 07:05:13;;;;;;;16.75;6.60;;;3.90;99.90;;;;;;5054625;28;20394;-71
2022/02/27 07:07:38;;;;;;;12.02;5.10;;;4.40;99.90;;;;;;5053385;28;20025;-70
2022/02/27 07:10:06;;;;;;;18.08;6.35;;;5.00;99.90;;;;;;5054488;28;20032;-71
2022/02/27 07:12:33;;;;;;;12.98;5.53;;;6.10;99.90;;;;;;5053159;28;20047;-72
2022/02/27 07:14:59;;;;;;;21.23;6.25;;;7.00;99.90;;;;;;5053209;28;20029;-72
2022/02/27 07:17:25;;;;;;;12.20;5.78;;;7.40;99.90;;;;;;5053139;28;20087;-71
2022/02/27 07:19:51;;;;;;;16.88;5.78;;;7.60;99.90;;;;;;5053095;28;20104;-72
2022/02/27 07:22:18;;;;;;;12.68;5.22;;;8.10;99.90;;;;;;5054188;28;20029;-72
2022/02/27 07:24:43;;;;;;;14.32;5.50;;;8.30;99.90;;;;;;5052918;28;20062;-71
2022/02/27 07:27:09;;;;;;;16.42;5.28;;;8.50;99.90;;;;;;5036381;28;20021;-72
2022/02/27 07:29:34;;;;;;;12.70;5.78;;;8.60;99.90;;;;;;5036278;28;20104;-72
2022/02/27 07:32:00;;;;;;;10.93;4.70;;;8.50;99.90;;;;;;5052686;28;20078;-71
2022/02/27 07:34:26;;;;;;;16.67;6.00;;;8.40;99.90;;;;;;5052804;28;20029;-71
2022/02/27 07:36:54;;;;;;;13.65;4.88;;;8.30;99.90;;;;;;5035434;28;20390;-72
2022/02/27 07:39:20;;;;;;;12.25;5.13;;;8.20;99.90;;;;;;5052617;28;20067;-72
2022/02/27 07:41:46;;;;;;;10.98;4.22;;;8.70;99.90;;;;;;5053845;28;20059;-71
2022/02/27 07:44:12;;;;;;;11.07;4.80;;;9.00;99.90;;;;;;5052543;28;20418;-71
2022/02/27 07:46:37;;;;;;;12.10;4.95;;;9.30;99.90;;;;;;5053716;28;20025;-71
2022/02/27 07:49:03;;;;;;;11.02;4.82;;;8.90;99.90;;;;;;5052467;28;20017;-73
2022/02/27 07:51:29;;;;;;;10.65;5.15;;;8.70;99.90;;;;;;5052407;28;20386;-71
2022/02/27 07:53:55;;;;;;;10.20;4.20;;;8.80;99.90;;;;;;5053628;28;20021;-72
2022/02/27 07:56:21;;;;;;;12.15;4.97;;;8.70;99.90;;;;;;5053576;28;20017;-72
2022/02/27 07:58:46;;;;;;;8.65;4.40;;;9.20;99.90;;;;;;5035737;28;20100;-72
2022/02/27 08:01:12;;;;;;;13.48;5.00;;;9.00;99.90;;;;;;5052112;28;20020;-72
2022/02/27 08:03:37;;;;;;;12.20;4.90;;;9.20;99.90;;;;;;5053437;28;20021;-71
2022/02/27 08:06:03;;;;;;;10.07;4.55;;;9.30;99.90;;;;;;5052276;28;20391;-71
2022/02/27 08:08:28;;;;;;;11.20;4.00;;;9.50;99.90;;;;;;5053457;28;20052;-72
2022/02/27 08:10:54;;;;;;;12.23;4.70;;;9.00;99.90;;;;;;5053377;28;20188;-72
2022/02/27 08:13:19;;;;;;;15.30;5.03;;;8.90;99.90;;;;;;5053355;28;20118;-72
2022/02/27 08:15:45;;;;;;;9.05;4.28;;;9.10;99.90;;;;;;5052096;28;20029;-71
2022/02/27 08:18:10;;;;;;;10.80;4.78;;;9.10;99.90;;;;;;5053395;28;20414;-72
2022/02/27 08:20:36;;;;;;;16.10;4.90;;;8.70;99.90;;;;;;5053138;28;20402;-71
2022/02/27 08:23:02;;;;;;;10.70;4.72;;;8.80;99.90;;;;;;5053213;28;20021;-72
2022/02/27 08:25:27;;;;;;;10.82;4.78;;;9.40;99.90;;;;;;5053135;28;20025;-72
2022/02/27 08:27:53;;;;;;;9.77;4.40;;;8.80;99.90;;;;;;5051977;28;20021;-72
2022/02/27 08:30:18;;;;;;;15.43;5.03;;;9.60;99.90;;;;;;5052870;28;20041;-72
2022/02/27 08:32:49;;;;;;;13.63;4.65;;;9.30;99.90;;;;;;5035190;28;20574;-73
2022/02/27 08:35:16;;;;;;;13.98;4.55;;;10.50;99.90;;;;;;5051979;28;20552;-72
2022/02/27 08:37:41;;;;;;;11.57;4.38;;;10.00;99.90;;;;;;5051940;28;20479;-72
2022/02/27 08:40:07;;;;;;;9.25;4.38;;;10.10;99.90;;;;;;5051824;28;20029;-72
2022/02/27 08:42:33;;;;;;;10.32;4.75;;;10.40;99.90;;;;;;5035080;28;20455;-72
2022/02/27 08:44:58;;;;;;;10.20;4.50;;;9.50;99.90;;;;;;5052982;28;20024;-72
2022/02/27 08:47:24;;;;;;;15.75;4.90;;;9.00;99.90;;;;;;5053117;28;20111;-73
2022/02/27 08:49:50;;;;;;;12.10;4.93;;;9.00;99.90;;;;;;5057078;28;20025;-72
2022/02/27 08:52:15;;;;;;;11.70;4.85;;;9.00;99.90;;;;;;5039188;28;20032;-72
2022/02/27 08:54:41;;;;;;;9.98;5.13;;;8.30;99.90;;;;;;5055936;28;20025;-72
2022/02/27 08:57:06;;;;;;;13.70;5.10;;;9.10;99.90;;;;;;5039136;28;20389;-72
2022/02/27 08:59:32;;;;;;;11.57;5.15;;;9.30;99.90;;;;;;5056926;28;20032;-72
2022/02/27 09:01:57;;;;;;;11.85;5.50;;;9.90;99.90;;;;;;5056787;28;20036;-73
2022/02/27 09:04:23;;;;;;;10.82;4.97;;;10.60;99.90;;;;;;5039061;28;20576;-72
2022/02/27 09:06:49;;;;;;;9.82;4.70;;;10.20;99.90;;;;;;5056723;28;20017;-72
2022/02/27 09:09:16;;;;;;;11.02;5.10;;;9.80;99.90;;;;;;5055653;28;20036;-73
2022/02/27 09:11:42;;;;;;;12.55;5.03;;;9.50;99.90;;;;;;5056694;28;20474;-72
2022/02/27 09:14:07;;;;;;;8.30;4.95;;;9.80;99.90;;;;;;5038796;28;20036;-72
2022/02/27 09:16:33;;;;;;;11.13;5.38;;;10.50;99.90;;;;;;5056595;28;20025;-72
2022/02/27 09:18:58;;;;;;;12.95;5.25;;;10.50;99.90;;;;;;5055379;28;20071;-73
2022/02/27 09:21:24;;;;;;;11.25;5.03;;;10.30;99.90;;;;;;5055247;28;20139;-72
2022/02/27 09:23:49;;;;;;;10.52;5.25;;;9.90;99.90;;;;;;5055206;28;20043;-72
2022/02/27 09:26:15;;;;;;;13.88;4.93;;;10.00;99.90;;;;;;5055243;28;20025;-73
2022/02/27 09:28:41;;;;;;;11.48;5.90;;;10.70;99.90;;;;;;5038553;28;20025;-72
2022/02/27 09:31:06;;;;;;;10.77;4.60;;;9.90;99.90;;;;;;5056129;28;20053;-73
2022/02/27 09:33:32;;;;;;;14.68;5.28;;;9.80;99.90;;;;;;5038440;28;20052;-72
2022/02/27 09:35:58;;;;;;;10.88;5.43;;;9.20;99.90;;;;;;5055089;28;20052;-72
2022/02/27 09:38:23;;;;;;;10.40;5.03;;;9.50;99.90;;;;;;5054908;28;20391;-72
2022/02/27 09:40:50;;;;;;;11.70;5.03;;;9.90;99.90;;;;;;5054871;28;20068;-72
2022/02/27 09:43:19;;;;;;;10.73;4.78;;;9.90;99.90;;;;;;5038257;28;20017;-72
2022/02/27 09:45:46;;;;;;;10.65;4.88;;;10.80;99.90;;;;;;5038166;28;20053;-73
2022/02/27 09:48:12;;;;;;;15.05;5.45;;;10.40;99.90;;;;;;5054778;28;20087;-72
2022/02/27 09:50:40;;;;;;;11.65;4.97;;;10.60;99.90;;;;;;5054780;28;20025;-72
2022/02/27 09:53:09;;;;;;;11.63;5.32;;;10.60;99.90;;;;;;5054640;28;20475;-72
2022/02/27 09:55:37;;;;;;;9.27;4.38;;;11.00;99.90;;;;;;5055826;28;20017;-73
2022/02/27 09:58:03;;;;;;;12.13;5.05;;;10.90;99.90;;;;;;5055764;28;20448;-72
2022/02/27 10:00:29;;;;;;;7.88;4.05;;;10.80;99.90;;;;;;5055019;28;20116;-72
2022/02/27 10:03:15;;;;;;;11.98;4.78;;;11.50;99.90;;;;;;5054620;28;20100;-73
2022/02/27 10:05:43;;;;;;;11.57;4.88;;;11.00;99.90;;;;;;5037785;28;20017;-72
2022/02/27 10:08:10;;;;;;;10.57;4.75;;;10.70;99.90;;;;;;5054425;28;20071;-73
2022/02/27 10:10:41;;;;;;;10.90;4.65;;;11.20;99.70;;;;;;5055558;28;20017;-72
2022/02/27 10:13:07;;;;;;;11.68;4.75;;;10.50;99.90;;;;;;5054209;28;20021;-72
2022/02/27 10:15:34;;;;;;;9.82;5.00;;;10.90;99.90;;;;;;5054339;28;20024;-73
2022/02/27 10:18:13;;;;;;;9.48;4.72;;;11.30;99.90;;;;;;5055487;28;20021;-72
2022/02/27 10:20:40;;;;;;;12.27;5.22;;;11.30;99.90;;;;;;5054168;28;20017;-72
2022/02/27 10:23:05;;;;;;;15.38;5.43;;;11.70;99.90;;;;;;5054087;28;20017;-72
2022/02/27 10:25:31;;;;;;;13.02;4.72;;;11.90;99.60;;;;;;5054143;28;20025;-72
2022/02/27 10:28:00;;;;;;;10.50;4.50;;;11.90;97.30;;;;;;5055329;28;20025;-73
2022/02/27 10:30:29;;;;;;;10.75;4.30;;;11.50;96.20;;;;;;5055016;28;20060;-72
2022/02/27 10:33:02;;;;;;;13.02;4.60;;;11.30;97.90;;;;;;5055254;28;20025;-72
2022/02/27 10:35:48;;;;;;;12.82;4.43;;;11.80;99.00;;;;;;5055104;28;20025;-72
2022/02/27 10:38:18;;;;;;;9.93;5.10;;;12.10;99.90;;;;;;5055158;28;20078;-72
2022/02/27 10:40:46;;;;;;;7.60;4.30;;;12.70;97.60;;;;;;5037443;28;20108;-72
2022/02/27 10:43:13;;;;;;;6.85;3.53;;;12.70;90.90;;;;;;5055028;28;20033;-73
2022/02/27 10:45:40;;;;;;;8.65;3.50;;;12.30;90.60;;;;;;5054942;28;20025;-72
2022/02/27 10:48:13;;;;;;;8.85;3.63;;;11.80;90.10;;;;;;5053737;28;20518;-72
2022/02/27 10:50:39;;;;;;;;;;;11.50;91.30;;;;;;5055311;28;20024;-72
2022/02/27 10:53:05;;;;;;;6.82;3.63;;;11.90;93.00;;;;;;5053549;28;19905;-72
2022/02/27 10:55:33;;;;;;;8.40;4.00;;;11.50;91.30;;;;;;5054803;28;20032;-72
2022/02/27 10:57:59;;;;;;;8.50;4.00;;;11.40;93.80;;;;;;5053606;28;20391;-72
2022/02/27 11:00:29;;;;;;;9.95;3.80;;;11.90;92.10;;;;;;5053521;28;20028;-72
2022/02/27 11:02:59;;;;;;;6.30;3.28;;;11.90;90.60;;;;;;5053470;28;20071;-72
2022/02/27 11:05:27;;;;;;;7.13;3.28;;;11.60;90.60;;;;;;5053310;28;20063;-72
2022/02/27 11:07:55;;;;;;;6.85;3.92;;;11.80;91.50;;;;;;5053354;28;20025;-72
2022/02/27 11:10:25;;;;;;;9.40;4.00;;;11.80;92.00;;;;;;5053662;28;20017;-72
2022/02/27 11:12:50;;;;;;;10.15;4.05;;;12.00;91.60;;;;;;5053129;28;20025;-72
2022/02/27 11:15:19;;;;;;;7.53;3.45;;;12.40;85.70;;;;;;5053121;28;20035;-73
2022/02/27 11:17:45;;;;;;;7.35;3.88;;;11.90;89.20;;;;;;5053039;28;20029;-72
2022/02/27 11:20:12;;;;;;;8.10;3.75;;;12.90;92.50;;;;;;5036461;28;20110;-72
2022/02/27 11:22:39;;;;;;;6.60;3.58;;;12.20;84.90;;;;;;5054090;28;20025;-72
2022/02/27 11:25:08;;;;;;;6.45;3.25;;;11.30;88.70;;;;;;5052965;28;20487;-72
2022/02/27 11:27:36;;;;;;;5.70;3.17;;;11.50;89.80;;;;;;5054074;28;20045;-73
2022/02/27 11:30:04;;;;;;;8.02;3.47;;;12.00;85.60;;;;;;5052734;28;20499;-72
2022/02/27 11:32:29;;;;;;;4.55;3.00;;;12.40;87.00;;;;;;5036192;28;20441;-72
2022/02/27 11:34:55;;;;;;;4.80;3.15;;;11.70;84.40;;;;;;5053893;28;20029;-72
2022/02/27 11:37:49;;;;;;;6.40;3.35;;;11.40;86.50;;;;;;5053806;28;20079;-73
2022/02/27 11:40:31;;;;;;;4.75;2.55;;;10.80;86.10;;;;;;5053887;28;20525;-72
2022/02/27 11:42:59;;;;;;;4.50;2.40;;;10.30;83.80;;;;;;5052910;28;20043;-72
2022/02/27 11:45:45;;;;;;;6.55;2.33;;;10.40;80.30;;;;;;5053778;28;20334;-72
2022/02/27 11:48:11;;;;;;;3.65;2.40;;;10.60;81.00;;;;;;5053746;28;20437;-72
2022/02/27 11:50:39;;;;;;;6.70;2.40;;;10.90;79.30;;;;;;5052589;28;20398;-72
2022/02/27 11:53:22;;;;;;;5.18;2.53;;;10.50;77.50;;;;;;5053688;28;20028;-72
2022/02/27 11:55:48;;;;;;;5.13;2.10;;;10.30;80.60;;;;;;5052467;28;20021;-73
2022/02/27 12:01:11;;;;;;;3.47;1.90;;;10.10;79.40;;;;;;5111182;27;20909;-72
2022/02/27 12:03:38;;;;;;;5.85;1.92;;;10.30;78.00;;;;;;5111036;28;20059;-72
2022/02/27 12:06:05;;;;;;;4.30;2.78;;;10.40;76.70;;;;;;5109905;28;20020;-72
2022/02/27 12:08:42;;;;;;;3.05;2.10;;;10.20;77.20;;;;;;5109661;28;20473;-72
2022/02/27 12:11:31;;;;;;;4.78;1.95;;;10.40;80.50;;;;;;5110859;28;20051;-72
2022/02/27 12:14:03;;;;;;;5.60;2.50;;;10.60;80.00;;;;;;5110866;28;20016;-72
2022/02/27 12:16:45;;;;;;;4.15;2.47;;;10.30;75.30;;;;;;5110856;28;20020;-73
2022/02/27 12:19:30;;;;;;;3.85;2.38;;;10.20;77.90;;;;;;5110606;28;20081;-72
2022/02/27 12:21:59;;;;;;;5.38;2.40;;;10.20;77.30;;;;;;5092954;28;20474;-72
2022/02/27 12:24:29;;;;;;;5.40;2.25;;;10.50;79.50;;;;;;5110617;28;20020;-73
2022/02/27 12:26:55;;;;;;;5.88;2.10;;;10.50;75.90;;;;;;5109360;28;20020;-73
2022/02/27 12:32:10;;;;;;;5.28;2.35;;;10.40;76.40;;;;;;5111203;27;20401;-72
2022/02/27 12:34:37;;;;;;;4.47;1.77;;;10.00;73.70;;;;;;5111098;28;20078;-72
2022/02/27 12:37:04;;;;;;;4.20;2.35;;;9.80;75.50;;;;;;5109771;28;20023;-72
2022/02/27 12:39:33;;;;;;;4.32;1.83;;;10.00;77.00;;;;;;5092957;28;20024;-71
2022/02/27 12:42:00;;;;;;;4.35;1.90;;;9.80;78.70;;;;;;5110954;28;20028;-71
2022/02/27 12:44:30;;;;;;;3.72;2.08;;;10.00;75.00;;;;;;5109637;28;20067;-72